Time;durP1;ratioP1;P1;durP2;ratioP2;P2;SDS_P1;SDS_P2;PMS_P1;PMS_P2;Temp;Humidity;BMP_temperature;BMP_pressure;BME280_temperature;BME280_humidity;BME280_pressure;Samples;Min_cycle;Max_cycle;Signal;HPM_P1;HPM_P2
2021/10/28 00:13:07;;;;;;;23.20;19.17;;;4.70;99.90;;;;;;5013482;28;20392;-74
2021/10/28 00:15:38;;;;;;;20.73;18.58;;;4.70;99.90;;;;;;5009995;28;20018;-73
2021/10/28 00:18:17;;;;;;;21.85;19.45;;;4.60;99.90;;;;;;5012756;28;20060;-73
2021/10/28 00:20:43;;;;;;;23.55;19.13;;;4.60;99.90;;;;;;5011774;28;20381;-73
2021/10/28 00:23:09;;;;;;;28.10;21.98;;;4.70;99.90;;;;;;5013323;28;20045;-74
2021/10/28 00:25:38;;;;;;;33.30;24.30;;;4.80;99.90;;;;;;5013249;28;20041;-74
2021/10/28 00:28:06;;;;;;;124.13;32.58;;;4.80;99.90;;;;;;5013104;28;20054;-73
2021/10/28 00:30:32;;;;;;;169.35;38.85;;;4.80;99.90;;;;;;5013014;28;20041;-73
2021/10/28 00:32:58;;;;;;;90.88;31.05;;;4.90;99.90;;;;;;5015831;28;20026;-73
2021/10/28 00:35:23;;;;;;;126.85;37.10;;;4.80;99.90;;;;;;5012794;28;20049;-74
2021/10/28 00:37:50;;;;;;;149.25;42.95;;;4.60;99.90;;;;;;5013004;28;20365;-74
2021/10/28 00:40:16;;;;;;;102.40;35.70;;;4.60;99.90;;;;;;5011493;28;20033;-73
2021/10/28 00:42:41;;;;;;;55.78;27.95;;;4.60;99.90;;;;;;5012748;28;20026;-73
2021/10/28 00:45:08;;;;;;;37.60;25.85;;;4.50;99.90;;;;;;5015714;28;20029;-73
2021/10/28 00:47:34;;;;;;;36.40;27.65;;;4.50;99.90;;;;;;5011690;28;20491;-73
2021/10/28 00:50:05;;;;;;;121.05;40.00;;;4.40;99.90;;;;;;5016385;28;20026;-73
2021/10/28 00:52:31;;;;;;;32.10;20.90;;;4.50;99.90;;;;;;5013944;28;20022;-73
2021/10/28 00:54:56;;;;;;;27.42;23.23;;;4.50;99.90;;;;;;5012747;28;20404;-73
2021/10/28 00:57:22;;;;;;;27.88;23.88;;;4.60;99.90;;;;;;5014907;28;20041;-73
2021/10/28 00:59:47;;;;;;;27.17;22.05;;;4.90;99.90;;;;;;5012736;28;20030;-73
2021/10/28 01:02:14;;;;;;;29.35;22.70;;;4.70;99.90;;;;;;5012552;28;20099;-73
2021/10/28 01:04:40;;;;;;;35.13;26.23;;;4.60;99.90;;;;;;5012458;28;20018;-73
2021/10/28 01:07:06;;;;;;;34.53;25.80;;;4.70;99.90;;;;;;5013196;28;20395;-73
2021/10/28 01:09:31;;;;;;;42.72;28.50;;;4.60;99.90;;;;;;5012200;28;20472;-73
2021/10/28 01:11:57;;;;;;;24.38;20.98;;;4.50;99.90;;;;;;5014347;28;20025;-74
2021/10/28 01:14:23;;;;;;;20.02;17.92;;;4.50;99.90;;;;;;5012537;28;20026;-73
2021/10/28 01:16:58;;;;;;;22.17;19.08;;;4.40;99.90;;;;;;5012239;28;20041;-73
2021/10/28 01:19:25;;;;;;;20.40;18.20;;;4.40;99.90;;;;;;5019274;28;20037;-73
2021/10/28 01:21:50;;;;;;;21.95;19.55;;;4.50;99.90;;;;;;5020103;28;20013;-73
2021/10/28 01:24:16;;;;;;;19.00;16.80;;;4.70;99.90;;;;;;5014453;28;20030;-73
2021/10/28 01:26:42;;;;;;;20.10;17.90;;;4.70;99.90;;;;;;5012186;28;20032;-73
2021/10/28 01:29:08;;;;;;;20.02;17.95;;;4.60;99.90;;;;;;5015069;28;20018;-73
2021/10/28 01:31:35;;;;;;;39.53;19.80;;;4.60;99.90;;;;;;5013059;28;20022;-73
2021/10/28 01:34:04;;;;;;;33.05;20.73;;;4.70;99.90;;;;;;5010921;28;20053;-73
2021/10/28 01:36:30;;;;;;;55.65;23.83;;;4.60;99.90;;;;;;5012669;28;20061;-73
2021/10/28 01:38:56;;;;;;;58.03;22.45;;;4.50;99.90;;;;;;5011986;28;20480;-73
2021/10/28 01:41:25;;;;;;;34.42;20.13;;;4.50;99.90;;;;;;5010655;28;20030;-73
2021/10/28 01:43:53;;;;;;;62.30;22.83;;;4.40;99.90;;;;;;5012397;28;20029;-73
2021/10/28 01:46:19;;;;;;;402.25;52.97;;;4.30;99.90;;;;;;5013787;28;20017;-73
2021/10/28 01:48:45;;;;;;;121.82;30.35;;;4.20;99.90;;;;;;5012177;28;20507;-73
2021/10/28 01:51:11;;;;;;;361.00;48.17;;;4.10;99.90;;;;;;5018857;28;20037;-73
2021/10/28 01:53:41;;;;;;;51.70;21.02;;;4.10;99.90;;;;;;5031037;28;20053;-74
2021/10/28 01:56:08;;;;;;;21.65;19.38;;;4.10;99.90;;;;;;5011872;28;20026;-74
2021/10/28 01:58:34;;;;;;;302.63;46.40;;;3.80;99.90;;;;;;5023839;28;20045;-73
2021/10/28 02:01:01;;;;;;;39.67;21.52;;;4.00;99.90;;;;;;5017972;28;20104;-74
2021/10/28 02:03:26;;;;;;;34.97;23.25;;;3.80;99.90;;;;;;5023739;28;20760;-74
2021/10/28 02:05:53;;;;;;;124.85;35.28;;;3.70;99.90;;;;;;5011900;28;20032;-73
2021/10/28 02:08:19;;;;;;;35.05;23.38;;;3.70;99.90;;;;;;5016345;28;20030;-74
2021/10/28 02:10:45;;;;;;;35.92;26.17;;;3.80;99.90;;;;;;5022616;28;20459;-73
2021/10/28 02:13:11;;;;;;;64.10;25.65;;;3.80;99.90;;;;;;5025119;28;20047;-74
2021/10/28 02:15:36;;;;;;;22.20;17.58;;;3.50;99.90;;;;;;5019098;28;20029;-73
2021/10/28 02:18:02;;;;;;;28.05;18.65;;;3.60;99.90;;;;;;5018141;28;20018;-74
2021/10/28 02:20:28;;;;;;;108.65;25.33;;;3.70;99.90;;;;;;5020543;28;20408;-74
2021/10/28 02:22:53;;;;;;;169.23;35.05;;;3.70;99.90;;;;;;5021994;28;20494;-74
2021/10/28 02:25:19;;;;;;;92.00;25.63;;;3.80;99.90;;;;;;5028270;28;20022;-74
2021/10/28 02:27:46;;;;;;;59.13;25.05;;;3.90;99.90;;;;;;5002990;28;20035;-74
2021/10/28 02:30:14;;;;;;;204.32;49.38;;;3.90;99.90;;;;;;5027937;28;20109;-75
2021/10/28 02:32:40;;;;;;;48.00;20.33;;;3.80;99.90;;;;;;5028517;28;20468;-75
2021/10/28 02:35:05;;;;;;;50.80;23.55;;;3.80;99.90;;;;;;5015430;28;20026;-74
2021/10/28 02:37:31;;;;;;;206.38;39.42;;;3.70;99.90;;;;;;5027270;28;20026;-75
2021/10/28 02:39:58;;;;;;;95.53;32.35;;;3.70;99.90;;;;;;5015326;28;20025;-74
2021/10/28 02:42:23;;;;;;;232.50;27.58;;;3.60;99.90;;;;;;5028423;28;20021;-75
2021/10/28 02:44:49;;;;;;;137.68;29.63;;;3.60;99.90;;;;;;5015491;28;20465;-74
2021/10/28 02:47:15;;;;;;;191.35;26.52;;;3.60;99.90;;;;;;5030371;28;20046;-75
2021/10/28 02:49:41;;;;;;;149.80;24.40;;;3.50;99.90;;;;;;5026566;28;20025;-75
2021/10/28 02:52:07;;;;;;;160.80;39.45;;;3.50;99.90;;;;;;5027150;28;20025;-75
2021/10/28 02:54:34;;;;;;;129.00;32.83;;;3.60;99.90;;;;;;5022223;28;20510;-74
2021/10/28 02:57:01;;;;;;;177.60;34.15;;;3.50;99.90;;;;;;5021676;28;20598;-74
2021/10/28 02:59:26;;;;;;;278.42;38.60;;;3.40;99.90;;;;;;5025031;28;20026;-73
2021/10/28 03:01:54;;;;;;;357.35;51.50;;;3.60;99.90;;;;;;5027926;28;20116;-73
2021/10/28 03:04:22;;;;;;;242.98;43.75;;;3.20;99.90;;;;;;5023851;28;20028;-73
2021/10/28 03:06:49;;;;;;;124.40;34.38;;;3.30;99.90;;;;;;5021480;28;20101;-74
2021/10/28 03:09:21;;;;;;;117.25;39.25;;;3.10;99.90;;;;;;5024050;28;20471;-74
2021/10/28 03:11:48;;;;;;;130.20;39.72;;;3.10;99.90;;;;;;5014582;28;20022;-74
2021/10/28 03:14:21;;;;;;;393.70;64.50;;;3.20;99.90;;;;;;5025110;28;20037;-74
2021/10/28 03:16:55;;;;;;;166.98;38.45;;;3.10;99.90;;;;;;5021372;28;20053;-74
2021/10/28 03:19:31;;;;;;;324.15;50.65;;;3.20;99.90;;;;;;5020567;28;20026;-74
2021/10/28 03:27:29;;;;;;;154.75;32.38;;;3.00;99.90;;;;;;5022205;28;20164;-74
2021/10/28 03:29:58;;;;;;;137.00;30.70;;;3.10;99.90;;;;;;5032353;28;20045;-73
2021/10/28 03:32:25;;;;;;;325.83;30.48;;;3.10;99.90;;;;;;5019252;28;20127;-74
2021/10/28 03:34:51;;;;;;;413.85;55.28;;;3.50;99.90;;;;;;5019670;28;20033;-74
2021/10/28 03:37:22;;;;;;;337.02;53.33;;;3.30;99.90;;;;;;5020786;28;20037;-73
2021/10/28 03:40:19;;;;;;;323.20;52.83;;;3.20;99.90;;;;;;5007736;28;20022;-74
2021/10/28 04:04:30;;;;;;;516.95;42.58;;;2.90;99.90;;;;;;5020629;28;20053;-75
2021/10/28 04:18:12;;;;;;;348.15;45.30;;;2.70;99.90;;;;;;5013575;28;20110;-73
2021/10/28 04:21:00;;;;;;;187.07;23.55;;;2.90;99.90;;;;;;5022499;28;20505;-73
2021/10/28 04:31:27;;;;;;;615.13;56.53;;;3.10;99.90;;;;;;5020186;28;20025;-74
2021/10/28 04:33:54;;;;;;;398.10;33.67;;;3.10;99.90;;;;;;5020517;28;20026;-73
2021/10/28 04:36:23;;;;;;;340.10;36.13;;;2.90;99.90;;;;;;5025071;28;20054;-74
2021/10/28 04:38:49;;;;;;;490.63;47.72;;;3.00;99.90;;;;;;5021568;28;20392;-73
2021/10/28 04:41:15;;;;;;;512.83;60.13;;;2.80;99.90;;;;;;5025807;28;20484;-74
2021/10/28 04:43:41;;;;;;;309.27;35.85;;;2.80;99.90;;;;;;5024745;28;20079;-73
2021/10/28 04:46:07;;;;;;;565.70;41.83;;;2.80;99.90;;;;;;5012733;28;20034;-73
2021/10/28 04:48:32;;;;;;;292.77;33.08;;;2.90;99.90;;;;;;5023611;28;20395;-73
2021/10/28 04:50:58;;;;;;;262.33;31.05;;;2.70;99.90;;;;;;5018080;28;20545;-74
2021/10/28 04:53:25;;;;;;;566.50;52.97;;;3.00;99.90;;;;;;5019070;28;20018;-73
2021/10/28 04:55:50;;;;;;;500.60;52.40;;;2.90;99.90;;;;;;5024569;28;20061;-74
2021/10/28 04:58:16;;;;;;;431.48;56.33;;;2.80;99.90;;;;;;5024980;28;20060;-74
2021/10/28 05:00:42;;;;;;;546.53;66.75;;;2.60;99.90;;;;;;5019035;28;20097;-73
2021/10/28 05:03:07;;;;;;;362.08;57.72;;;2.40;99.90;;;;;;5020330;28;20018;-72
2021/10/28 05:05:33;;;;;;;441.58;60.25;;;2.40;99.90;;;;;;5031397;28;20027;-73
2021/10/28 05:07:58;;;;;;;162.98;26.50;;;2.20;99.90;;;;;;5020304;28;20538;-71
2021/10/28 05:10:24;;;;;;;407.27;70.70;;;2.40;99.90;;;;;;5025789;28;20029;-72
2021/10/28 05:12:49;;;;;;;319.15;55.88;;;2.50;99.90;;;;;;5012424;28;20026;-73
2021/10/28 05:15:15;;;;;;;286.23;68.93;;;2.30;99.90;;;;;;5025853;28;20370;-74
2021/10/28 05:17:40;;;;;;;179.15;50.42;;;2.20;99.90;;;;;;5024367;28;20033;-73
2021/10/28 05:20:07;;;;;;;169.25;41.97;;;2.20;99.90;;;;;;5019550;28;20036;-74
2021/10/28 05:22:32;;;;;;;153.07;45.53;;;2.20;99.90;;;;;;5019331;28;20022;-74
2021/10/28 05:24:58;;;;;;;188.45;40.95;;;2.20;99.90;;;;;;5025810;28;20092;-74
2021/10/28 05:27:23;;;;;;;192.73;46.95;;;2.00;99.90;;;;;;5025192;28;20549;-74
2021/10/28 05:29:49;;;;;;;171.75;27.13;;;2.20;99.90;;;;;;5019021;28;20478;-74
2021/10/28 05:32:14;;;;;;;303.08;43.97;;;2.00;99.90;;;;;;5018676;28;20065;-74
2021/10/28 05:34:40;;;;;;;230.40;67.50;;;2.10;99.90;;;;;;5026400;28;20084;-74
2021/10/28 05:37:05;;;;;;;313.65;51.55;;;1.90;99.90;;;;;;5024949;28;20390;-73
2021/10/28 05:39:31;;;;;;;239.93;60.45;;;2.00;99.90;;;;;;5017452;28;20076;-74
2021/10/28 05:41:57;;;;;;;395.00;61.17;;;2.00;99.90;;;;;;5020209;28;20022;-74
2021/10/28 05:44:22;;;;;;;391.27;92.85;;;1.90;99.90;;;;;;5025476;28;20026;-74
2021/10/28 05:46:48;;;;;;;654.83;99.38;;;1.90;99.90;;;;;;5023683;28;20468;-74
2021/10/28 05:49:14;;;;;;;463.08;52.55;;;1.70;99.90;;;;;;5018623;28;20025;-74
2021/10/28 05:51:40;;;;;;;547.13;115.90;;;1.70;99.90;;;;;;5018535;28;20052;-74
2021/10/28 05:54:06;;;;;;;493.20;85.05;;;1.70;99.90;;;;;;5024900;28;20026;-74
2021/10/28 05:56:31;;;;;;;1559.53;338.55;;;1.80;99.90;;;;;;5021956;28;20404;-74
2021/10/28 05:58:57;;;;;;;1860.53;422.48;;;1.80;99.90;;;;;;5013599;28;20029;-74
2021/10/28 06:01:22;;;;;;;570.65;123.63;;;1.70;99.90;;;;;;5023288;28;20017;-74
2021/10/28 06:03:48;;;;;;;967.95;181.10;;;1.90;99.90;;;;;;5018362;28;20105;-74
2021/10/28 06:06:13;;;;;;;451.70;91.72;;;2.00;99.90;;;;;;5020330;28;20516;-74
2021/10/28 06:08:39;;;;;;;834.25;183.40;;;2.00;99.90;;;;;;5024913;28;20057;-74
2021/10/28 06:11:05;;;;;;;294.45;93.50;;;2.10;99.90;;;;;;5022921;28;20064;-73
2021/10/28 06:13:30;;;;;;;595.50;133.90;;;2.20;99.90;;;;;;5018393;28;20028;-73
2021/10/28 06:15:58;;;;;;;486.92;123.68;;;2.40;99.90;;;;;;5021982;28;20037;-73
2021/10/28 06:20:50;;;;;;;509.80;93.95;;;2.30;99.90;;;;;;5021001;28;20042;-74
2021/10/28 06:23:17;;;;;;;401.88;97.57;;;2.50;99.90;;;;;;5025036;28;20052;-74
2021/10/28 06:25:42;;;;;;;199.38;41.65;;;2.40;99.90;;;;;;5023247;28;20029;-75
2021/10/28 06:28:08;;;;;;;343.17;83.78;;;2.40;99.90;;;;;;5014182;28;20642;-74
2021/10/28 06:30:34;;;;;;;388.05;61.45;;;2.30;99.90;;;;;;5024206;28;20038;-74
2021/10/28 06:33:02;;;;;;;250.43;40.65;;;2.50;99.90;;;;;;5018236;28;20025;-74
2021/10/28 06:35:28;;;;;;;298.70;59.75;;;2.60;99.90;;;;;;5019143;28;20038;-74
2021/10/28 06:37:54;;;;;;;156.68;24.05;;;2.60;99.90;;;;;;5024066;28;20022;-76
2021/10/28 06:40:24;;;;;;;71.22;21.48;;;2.70;99.90;;;;;;5012035;28;20025;-74
2021/10/28 06:42:49;;;;;;;128.43;19.80;;;3.00;99.90;;;;;;5016987;28;20484;-74
2021/10/28 06:45:16;;;;;;;174.80;27.23;;;3.10;99.90;;;;;;5019167;28;20037;-76
2021/10/28 06:47:42;;;;;;;127.10;21.38;;;3.20;99.90;;;;;;5024870;28;20033;-74
2021/10/28 06:50:12;;;;;;;107.97;27.13;;;3.20;99.90;;;;;;5023822;28;20025;-74
2021/10/28 06:52:52;;;;;;;178.82;38.50;;;3.30;99.90;;;;;;5016570;28;20510;-75
2021/10/28 06:55:39;;;;;;;102.47;23.40;;;3.30;99.90;;;;;;5018018;28;20492;-74
2021/10/28 07:03:26;;;;;;;91.55;19.40;;;3.30;99.90;;;;;;5024792;28;20033;-74
2021/10/28 07:05:53;;;;;;;61.05;16.48;;;3.30;99.90;;;;;;5020630;28;20088;-74
2021/10/28 07:08:18;;;;;;;145.05;27.10;;;3.50;99.90;;;;;;5020081;28;20037;-74
2021/10/28 07:10:45;;;;;;;95.38;20.02;;;3.50;99.90;;;;;;5024870;28;20026;-74
2021/10/28 07:13:24;;;;;;;173.90;29.42;;;3.40;99.90;;;;;;5029761;28;20476;-74
2021/10/28 07:15:56;;;;;;;91.22;20.20;;;3.50;99.90;;;;;;5023275;28;20125;-74
2021/10/28 07:18:36;;;;;;;67.57;22.63;;;3.40;99.90;;;;;;5028036;28;20022;-74
2021/10/28 07:21:22;;;;;;;110.20;23.83;;;3.50;99.90;;;;;;5027296;28;20480;-74
2021/10/28 07:26:48;;;;;;;154.20;23.55;;;3.60;99.90;;;;;;5021367;28;20034;-74
2021/10/28 07:56:41;;;;;;;118.88;22.02;;;4.10;99.90;;;;;;5008839;28;20531;-73
2021/10/28 08:15:09;;;;;;;225.90;30.55;;;4.30;99.90;;;;;;4999098;28;20515;-73
2021/10/28 08:18:01;;;;;;;;;;;4.30;99.90;;;;;;5023444;28;20030;-74
2021/10/28 08:30:59;;;;;;;348.05;47.13;;;4.60;99.90;;;;;;5026324;28;20071;-73
2021/10/28 08:33:25;;;;;;;235.20;35.55;;;4.50;99.90;;;;;;5020045;28;20096;-74
2021/10/28 08:35:56;;;;;;;205.95;39.15;;;4.40;99.90;;;;;;5019724;28;20508;-74
2021/10/28 08:38:23;;;;;;;498.45;56.50;;;4.50;99.90;;;;;;5006500;28;20100;-74
2021/10/28 08:40:53;;;;;;;340.05;50.33;;;4.50;99.90;;;;;;5015092;28;20037;-74
2021/10/28 08:43:20;;;;;;;206.05;26.45;;;4.70;99.90;;;;;;5030744;28;20021;-72
2021/10/28 08:45:46;;;;;;;537.92;51.17;;;4.70;99.90;;;;;;5024547;28;20395;-73
2021/10/28 08:48:11;;;;;;;176.02;31.13;;;4.50;99.90;;;;;;5023141;28;20030;-75
2021/10/28 08:50:43;;;;;;;159.27;26.42;;;4.80;99.90;;;;;;5019443;28;20033;-74
2021/10/28 08:53:19;;;;;;;255.10;52.70;;;5.00;99.90;;;;;;5022740;28;20447;-74
2021/10/28 08:55:50;;;;;;;74.60;32.03;;;5.00;99.90;;;;;;5026273;28;20033;-74
2021/10/28 09:25:51;;;;;;;172.10;41.40;;;5.60;99.90;;;;;;5022331;28;20592;-74
2021/10/28 09:28:36;;;;;;;55.70;22.55;;;5.50;99.90;;;;;;5011980;28;20052;-74
2021/10/28 09:31:19;;;;;;;210.85;37.70;;;5.70;99.90;;;;;;5013566;28;20041;-74
2021/10/28 09:33:56;;;;;;;85.10;28.15;;;5.70;99.90;;;;;;5021690;28;20105;-74
2021/10/28 09:48:31;;;;;;;96.15;27.05;;;6.00;99.90;;;;;;5010654;28;20108;-74
2021/10/28 09:50:59;;;;;;;402.58;59.25;;;6.10;99.90;;;;;;5018365;28;20488;-74
2021/10/28 09:53:31;;;;;;;306.27;59.55;;;5.70;99.90;;;;;;5017821;28;20037;-74
2021/10/28 09:58:41;;;;;;;306.35;63.20;;;5.90;99.90;;;;;;5001890;28;20036;-74
2021/10/28 10:01:10;;;;;;;220.25;58.30;;;5.90;99.90;;;;;;5022035;28;20105;-74
2021/10/28 10:03:40;;;;;;;430.92;77.30;;;5.90;99.90;;;;;;5011916;28;20049;-74
2021/10/28 10:06:11;;;;;;;524.25;89.68;;;5.90;99.90;;;;;;5020664;28;20029;-74
2021/10/28 10:08:36;;;;;;;550.42;91.72;;;5.90;99.90;;;;;;5014263;28;20452;-74
2021/10/28 10:11:03;;;;;;;375.98;78.85;;;5.90;99.90;;;;;;5010295;28;20018;-74
2021/10/28 10:13:30;;;;;;;492.85;92.30;;;6.00;99.90;;;;;;5011764;28;20484;-75
2021/10/28 10:15:57;;;;;;;186.43;64.55;;;6.00;99.90;;;;;;5022481;28;20041;-74
2021/10/28 10:18:31;;;;;;;221.10;64.93;;;6.20;99.90;;;;;;5014009;28;20022;-74
2021/10/28 10:21:03;;;;;;;528.03;94.30;;;6.30;99.90;;;;;;5023448;28;20402;-75
2021/10/28 10:23:43;;;;;;;538.80;92.93;;;6.40;99.90;;;;;;5017116;28;20021;-74
2021/10/28 11:23:06;;;;;;;203.27;66.20;;;7.10;99.90;;;;;;5017558;28;20026;-74
2021/10/28 12:16:30;;;;;;;115.00;61.38;;;7.10;99.90;;;;;;5021820;28;20166;-75
2021/10/28 12:22:13;;;;;;;124.25;61.92;;;7.00;99.90;;;;;;5012735;28;20079;-74
2021/10/28 12:25:01;;;;;;;114.60;60.67;;;6.90;99.90;;;;;;5026097;28;20040;-75
2021/10/28 12:44:52;;;;;;;102.18;53.67;;;7.00;99.90;;;;;;5007701;28;20080;-74
2021/10/28 13:04:04;;;;;;;109.57;60.70;;;7.50;99.90;;;;;;5018945;28;20030;-74
2021/10/28 13:06:46;;;;;;;102.07;59.28;;;7.40;99.90;;;;;;5019313;28;20025;-74
2021/10/28 13:37:47;;;;;;;89.32;56.08;;;7.70;99.90;;;;;;5017911;28;20040;-74
2021/10/28 13:50:33;;;;;;;78.28;51.03;;;7.70;99.90;;;;;;5020504;28;20528;-73
2021/10/28 13:56:04;;;;;;;73.55;48.63;;;7.70;99.90;;;;;;5012083;28;20037;-74
2021/10/28 14:15:19;;;;;;;68.30;46.92;;;7.90;99.90;;;;;;5019646;28;20036;-74
2021/10/28 14:23:14;;;;;;;61.20;43.88;;;8.10;99.90;;;;;;5022426;28;20022;-74
2021/10/28 14:34:36;;;;;;;57.13;42.28;;;8.00;99.90;;;;;;5023859;28;20056;-75
2021/10/28 14:37:04;;;;;;;53.83;40.55;;;8.10;99.90;;;;;;5009604;28;20391;-74
2021/10/28 14:59:13;;;;;;;59.33;41.90;;;8.40;99.90;;;;;;5028524;28;20538;-74
2021/10/28 15:29:37;;;;;;;53.22;39.90;;;8.30;99.90;;;;;;5013479;28;20034;-73
2021/10/28 15:37:09;;;;;;;53.05;39.17;;;8.40;99.90;;;;;;5011496;28;20041;-74
2021/10/28 15:39:54;;;;;;;56.83;39.72;;;8.30;99.90;;;;;;5018735;28;20046;-75
2021/10/28 16:01:35;;;;;;;51.55;39.53;;;8.30;99.90;;;;;;5005660;28;20073;-74
2021/10/28 16:23:07;;;;;;;58.47;43.13;;;8.10;99.90;;;;;;5013989;28;20040;-74
2021/10/28 16:25:32;;;;;;;58.65;43.42;;;8.10;99.90;;;;;;5013623;28;20022;-75
2021/10/28 16:27:58;;;;;;;56.13;41.72;;;8.10;99.90;;;;;;5015804;28;20111;-75
2021/10/28 16:30:23;;;;;;;56.97;42.85;;;8.10;99.90;;;;;;5011950;28;20049;-74
2021/10/28 16:32:49;;;;;;;57.40;43.95;;;8.10;99.90;;;;;;5012133;28;20436;-74
2021/10/28 16:35:14;;;;;;;61.65;42.28;;;8.10;99.90;;;;;;5013416;28;20054;-74
2021/10/28 16:37:40;;;;;;;59.35;42.38;;;8.10;99.90;;;;;;5012853;28;20022;-74
2021/10/28 16:40:07;;;;;;;60.85;42.60;;;8.10;99.90;;;;;;5013112;28;20025;-76
2021/10/28 16:42:33;;;;;;;59.33;44.20;;;8.10;99.90;;;;;;5019675;28;20017;-76
2021/10/28 16:44:58;;;;;;;58.10;42.00;;;8.20;99.90;;;;;;5017663;28;20492;-73
2021/10/28 16:47:25;;;;;;;51.45;38.88;;;8.20;99.90;;;;;;5018285;28;20030;-74
2021/10/28 16:49:51;;;;;;;55.08;38.83;;;8.20;99.90;;;;;;5016995;28;20018;-73
2021/10/28 16:52:17;;;;;;;49.72;37.00;;;8.20;99.90;;;;;;5020681;28;20033;-73
2021/10/28 16:54:43;;;;;;;49.92;37.20;;;8.20;99.90;;;;;;5012886;28;20493;-73
2021/10/28 16:57:08;;;;;;;51.25;37.75;;;8.10;99.90;;;;;;5026110;28;20388;-73
2021/10/28 16:59:34;;;;;;;53.90;40.22;;;8.20;99.90;;;;;;5012372;28;20096;-73
2021/10/28 17:02:00;;;;;;;53.05;38.40;;;8.20;99.90;;;;;;5014316;28;20026;-73
2021/10/28 17:04:25;;;;;;;49.53;35.70;;;8.10;99.90;;;;;;5013825;28;20033;-73
2021/10/28 17:06:52;;;;;;;43.72;33.03;;;8.10;99.90;;;;;;5014760;28;20443;-74
2021/10/28 17:09:18;;;;;;;51.47;36.53;;;8.10;99.90;;;;;;5012543;28;20048;-73
2021/10/28 17:11:44;;;;;;;49.47;35.60;;;8.10;99.90;;;;;;5017158;28;20079;-73
2021/10/28 17:14:10;;;;;;;50.88;35.67;;;8.10;99.90;;;;;;5015613;28;20038;-74
2021/10/28 17:16:37;;;;;;;50.40;37.17;;;8.10;99.90;;;;;;5012466;28;20485;-73
2021/10/28 17:19:03;;;;;;;49.80;37.17;;;8.10;99.90;;;;;;5014435;28;20447;-73
2021/10/28 17:21:29;;;;;;;48.22;36.20;;;8.10;99.90;;;;;;5012101;28;20018;-74
2021/10/28 17:24:02;;;;;;;54.35;36.13;;;8.10;99.90;;;;;;5016000;28;20033;-74
2021/10/28 17:26:29;;;;;;;50.97;36.67;;;8.10;99.90;;;;;;5012234;28;20084;-74
2021/10/28 17:29:00;;;;;;;51.08;37.75;;;8.10;99.90;;;;;;5012151;28;20507;-74
2021/10/28 17:31:28;;;;;;;53.95;37.63;;;8.10;99.90;;;;;;5014604;28;20021;-75
2021/10/28 17:33:53;;;;;;;54.17;37.50;;;8.10;99.90;;;;;;5010782;28;20394;-75
2021/10/28 17:36:19;;;;;;;53.38;37.33;;;8.10;99.90;;;;;;5010702;28;20033;-75
2021/10/28 17:38:45;;;;;;;54.63;38.17;;;8.10;99.90;;;;;;5010232;28;20116;-75
2021/10/28 17:41:10;;;;;;;51.42;37.45;;;8.10;99.90;;;;;;5009498;28;20033;-75
2021/10/28 17:43:42;;;;;;;60.63;41.10;;;8.10;99.90;;;;;;5010554;28;20025;-74
2021/10/28 17:46:08;;;;;;;64.68;45.63;;;8.10;99.90;;;;;;5012146;28;20026;-75
2021/10/28 17:48:34;;;;;;;62.97;44.25;;;8.10;99.90;;;;;;5012787;28;20014;-76
2021/10/28 17:50:59;;;;;;;64.70;46.47;;;8.10;99.90;;;;;;5007812;28;20595;-75
2021/10/28 17:53:25;;;;;;;68.07;45.42;;;8.10;99.90;;;;;;5013724;28;20029;-74
2021/10/28 17:55:50;;;;;;;58.65;39.78;;;8.10;99.90;;;;;;5010810;28;20113;-75
2021/10/28 17:58:16;;;;;;;66.00;46.10;;;8.10;99.90;;;;;;5012093;28;20161;-74
2021/10/28 18:00:42;;;;;;;60.67;41.42;;;8.00;99.90;;;;;;5010340;28;20152;-74
2021/10/28 18:03:09;;;;;;;63.28;41.95;;;8.10;99.90;;;;;;5011947;28;20033;-74
2021/10/28 18:05:36;;;;;;;65.57;42.67;;;8.00;99.90;;;;;;5022031;28;20022;-74
2021/10/28 18:08:03;;;;;;;60.40;41.53;;;8.10;99.90;;;;;;5012960;28;20025;-75
2021/10/28 18:10:28;;;;;;;59.20;41.60;;;8.10;99.90;;;;;;5018333;28;20038;-74
2021/10/28 18:12:54;;;;;;;59.90;41.13;;;8.10;99.90;;;;;;5024368;28;20029;-74
2021/10/28 18:15:22;;;;;;;61.78;42.00;;;8.10;99.90;;;;;;5013927;28;20025;-74
2021/10/28 18:17:48;;;;;;;58.08;39.55;;;8.10;99.90;;;;;;5012498;28;20025;-74
2021/10/28 18:20:14;;;;;;;59.65;40.42;;;8.00;99.90;;;;;;5018458;28;20030;-74
2021/10/28 18:22:42;;;;;;;56.17;39.83;;;8.00;99.90;;;;;;5012591;28;20033;-74
2021/10/28 18:25:10;;;;;;;61.58;41.10;;;8.00;99.90;;;;;;5007966;28;20036;-74
2021/10/28 18:27:40;;;;;;;63.33;43.03;;;8.00;99.90;;;;;;5012552;28;20535;-74
2021/10/28 18:30:11;;;;;;;65.70;42.33;;;8.00;99.90;;;;;;5016121;28;20029;-74
2021/10/28 18:32:39;;;;;;;61.70;41.65;;;8.00;99.90;;;;;;5011277;28;20037;-74
2021/10/28 18:35:06;;;;;;;60.85;40.00;;;8.00;99.90;;;;;;5012293;28;20483;-74
2021/10/28 18:37:32;;;;;;;56.55;39.83;;;8.00;99.90;;;;;;5011256;28;20060;-74
2021/10/28 18:39:57;;;;;;;58.75;40.13;;;8.00;99.90;;;;;;5011368;28;20022;-74
2021/10/28 18:42:24;;;;;;;59.35;41.30;;;8.00;99.90;;;;;;5015973;28;20481;-74
2021/10/28 18:44:50;;;;;;;59.65;40.67;;;8.00;99.90;;;;;;5011286;28;20032;-76
2021/10/28 18:47:15;;;;;;;61.22;42.22;;;7.90;99.90;;;;;;5012620;28;20018;-74
2021/10/28 18:49:43;;;;;;;58.10;39.60;;;7.90;99.90;;;;;;5011856;28;20083;-74
2021/10/28 18:52:09;;;;;;;59.83;40.67;;;7.90;99.90;;;;;;5013319;28;20056;-74
2021/10/28 18:54:35;;;;;;;62.83;40.15;;;7.70;99.90;;;;;;5013627;28;20038;-74
2021/10/28 18:57:01;;;;;;;56.47;39.40;;;7.70;99.90;;;;;;5014534;28;20022;-74
2021/10/28 18:59:29;;;;;;;59.63;40.97;;;7.70;99.90;;;;;;5014814;28;20029;-73
2021/10/28 19:01:57;;;;;;;62.33;40.75;;;8.00;99.90;;;;;;5014064;28;20574;-74
2021/10/28 19:04:22;;;;;;;64.43;42.03;;;7.70;99.90;;;;;;5014863;28;20041;-74
2021/10/28 19:06:48;;;;;;;63.55;43.25;;;7.70;99.90;;;;;;5015235;28;20026;-74
2021/10/28 19:09:14;;;;;;;61.25;42.30;;;7.70;99.90;;;;;;5014368;28;20026;-74
2021/10/28 19:11:40;;;;;;;65.18;42.90;;;7.70;99.90;;;;;;5015835;28;20535;-74
2021/10/28 19:14:05;;;;;;;63.75;41.33;;;7.70;99.90;;;;;;5015553;28;20061;-75
2021/10/28 19:16:31;;;;;;;66.47;42.40;;;7.70;99.90;;;;;;5019899;28;20113;-74
2021/10/28 19:18:57;;;;;;;63.25;42.83;;;7.70;99.90;;;;;;5014237;28;20072;-74
2021/10/28 19:21:23;;;;;;;64.95;42.22;;;7.70;99.90;;;;;;5014063;28;20022;-74
2021/10/28 19:23:49;;;;;;;63.75;42.60;;;7.80;99.90;;;;;;5014552;28;20022;-74
2021/10/28 19:26:17;;;;;;;68.65;43.50;;;7.80;99.90;;;;;;5012644;28;20400;-74
2021/10/28 19:28:43;;;;;;;67.53;43.88;;;7.80;99.90;;;;;;5015201;28;20036;-74
2021/10/28 19:31:14;;;;;;;63.83;43.17;;;7.80;99.90;;;;;;5013714;28;20503;-74
2021/10/28 19:33:47;;;;;;;61.90;40.90;;;7.80;99.90;;;;;;5015490;28;20110;-74
2021/10/28 19:39:28;;;;;;;61.08;41.83;;;7.80;99.90;;;;;;5022908;28;20037;-74
2021/10/28 19:42:10;;;;;;;63.97;41.10;;;7.60;99.90;;;;;;5010222;28;20125;-74
2021/10/28 19:47:23;;;;;;;61.15;41.90;;;7.60;99.90;;;;;;5016453;28;20072;-74
2021/10/28 19:49:48;;;;;;;64.30;41.42;;;7.80;99.90;;;;;;5023129;28;20029;-74
2021/10/28 19:52:15;;;;;;;62.67;41.30;;;7.80;99.90;;;;;;5021014;28;20040;-74
2021/10/28 19:54:43;;;;;;;62.35;40.50;;;7.70;99.90;;;;;;5015480;28;20068;-74
2021/10/28 19:57:49;;;;;;;63.30;41.15;;;7.70;99.90;;;;;;5026144;28;20025;-73
2021/10/28 20:00:07;;;;;;;63.25;41.55;;;7.70;99.90;;;;;;5012496;28;20137;-74
2021/10/28 20:08:00;;;;;;;59.67;40.20;;;7.80;99.90;;;;;;5008409;28;20115;-73
2021/10/28 20:21:11;;;;;;;61.95;42.25;;;7.70;99.90;;;;;;5014669;28;20084;-74
2021/10/28 20:23:37;;;;;;;63.55;42.67;;;7.80;99.90;;;;;;5013252;28;20025;-74
2021/10/28 20:26:03;;;;;;;66.28;43.33;;;7.70;99.90;;;;;;5014549;28;20037;-74
2021/10/28 20:28:37;;;;;;;64.20;43.58;;;7.60;99.90;;;;;;5014587;28;20026;-75
2021/10/28 20:31:04;;;;;;;68.38;43.75;;;7.70;99.90;;;;;;5012979;28;20142;-75
2021/10/28 20:33:32;;;;;;;65.22;42.95;;;7.70;99.90;;;;;;5013435;28;20025;-76
2021/10/28 20:37:04;;;;;;;65.90;43.88;;;7.70;99.90;;;;;;5013241;28;20118;-74
2021/10/28 20:38:51;;;;;;;66.45;44.05;;;7.70;99.90;;;;;;5009676;28;20061;-75
2021/10/28 20:41:17;;;;;;;71.20;44.13;;;7.60;99.90;;;;;;5014318;28;20056;-75
2021/10/28 20:43:43;;;;;;;73.53;45.00;;;7.60;99.90;;;;;;5015841;28;20097;-77
2021/10/28 20:46:09;;;;;;;70.68;44.20;;;7.60;99.90;;;;;;5021267;28;20432;-75
2021/10/28 20:48:41;;;;;;;71.82;44.22;;;7.60;99.90;;;;;;5016004;28;20093;-74
2021/10/28 20:51:07;;;;;;;75.55;47.65;;;7.50;99.90;;;;;;5010233;28;20512;-74
2021/10/28 20:53:33;;;;;;;78.50;48.30;;;7.40;99.90;;;;;;5012676;28;20108;-75